createdAt,value
2017-08-09T00:02:21.037Z,32.13
2017-08-09T00:04:47.591Z,29.80
2017-08-09T00:07:13.985Z,31.63
2017-08-09T00:09:40.897Z,31.07
2017-08-09T00:12:07.814Z,32.20
2017-08-09T00:14:34.865Z,30.83
2017-08-09T00:17:01.869Z,30.10
2017-08-09T00:19:28.344Z,29.40
2017-08-09T00:21:55.125Z,29.23
2017-08-09T00:24:21.534Z,27.50
2017-08-09T00:26:47.868Z,29.90
2017-08-09T00:29:14.203Z,30.67
2017-08-09T00:31:40.774Z,30.57
2017-08-09T00:34:07.162Z,30.77
2017-08-09T00:36:33.589Z,30.27
2017-08-09T00:38:59.957Z,29.07
2017-08-09T00:41:26.303Z,29.00
2017-08-09T00:43:52.901Z,32.50
2017-08-09T00:46:19.300Z,30.13
2017-08-09T00:48:45.698Z,32.27
2017-08-09T00:51:12.059Z,31.90
2017-08-09T00:53:38.411Z,33.23
2017-08-09T00:56:04.771Z,29.47
2017-08-09T00:58:31.572Z,31.53
2017-08-09T01:00:57.956Z,32.10
2017-08-09T01:03:24.866Z,32.50
2017-08-09T01:05:51.234Z,31.17
2017-08-09T01:08:17.595Z,28.70
2017-08-09T01:10:44.104Z,30.50
2017-08-09T01:13:10.540Z,32.07
2017-08-09T01:15:36.925Z,31.30
2017-08-09T01:18:03.298Z,32.30
2017-08-09T01:20:29.663Z,30.20
2017-08-09T01:22:56.092Z,27.23
2017-08-09T01:25:22.427Z,29.20
2017-08-09T01:27:48.802Z,28.43
2017-08-09T01:30:15.283Z,30.37
2017-08-09T01:32:42.332Z,27.83
2017-08-09T01:35:09.223Z,28.13
2017-08-09T01:37:35.726Z,32.60
2017-08-09T01:40:02.154Z,32.77
2017-08-09T01:42:28.646Z,30.33
2017-08-09T01:44:55.077Z,28.90
2017-08-09T01:47:21.461Z,25.30
2017-08-09T01:49:48.082Z,25.10
2017-08-09T01:52:14.687Z,22.63
2017-08-09T01:54:41.241Z,26.80
2017-08-09T01:57:07.798Z,28.90
2017-08-09T01:59:34.571Z,31.40
2017-08-09T02:02:01.217Z,32.63
2017-08-09T02:04:27.915Z,34.00
2017-08-09T02:06:54.716Z,33.33
2017-08-09T02:09:21.289Z,35.57
2017-08-09T02:11:48.276Z,32.43
2017-08-09T02:14:15.118Z,33.40
2017-08-09T02:16:41.921Z,26.80
2017-08-09T02:19:08.544Z,28.60
2017-08-09T02:21:35.073Z,27.93
2017-08-09T02:24:01.471Z,26.47
2017-08-09T02:26:28.052Z,31.40
2017-08-09T02:28:54.727Z,25.63
2017-08-09T02:31:21.600Z,26.77
2017-08-09T02:33:48.275Z,27.40
2017-08-09T02:36:14.846Z,29.33
2017-08-09T02:38:41.505Z,26.10
2017-08-09T02:41:08.116Z,28.33
2017-08-09T02:43:35.028Z,27.17
2017-08-09T02:46:01.710Z,29.37
2017-08-09T02:48:28.340Z,27.33
2017-08-09T02:50:55.234Z,28.13
2017-08-09T02:53:21.578Z,27.57
2017-08-09T02:55:47.910Z,31.00
2017-08-09T02:58:14.256Z,29.37
2017-08-09T03:00:40.635Z,32.33
2017-08-09T03:03:07.043Z,28.40
2017-08-09T03:05:33.923Z,31.67
2017-08-09T03:08:00.276Z,28.40
2017-08-09T03:10:26.628Z,28.53
2017-08-09T03:12:53.009Z,20.17
2017-08-09T03:15:19.440Z,20.80
2017-08-09T03:17:45.823Z,20.00
2017-08-09T03:20:12.181Z,17.67
2017-08-09T03:22:38.578Z,17.03
2017-08-09T03:25:04.936Z,17.00
2017-08-09T03:27:31.320Z,18.00
2017-08-09T03:29:57.713Z,17.57
2017-08-09T03:32:24.087Z,18.43
2017-08-09T03:34:50.449Z,16.80
2017-08-09T03:37:16.845Z,15.33
2017-08-09T03:39:43.228Z,19.10
2017-08-09T03:42:09.631Z,15.90
2017-08-09T03:44:36.007Z,17.77
2017-08-09T03:47:02.442Z,20.63
2017-08-09T03:49:28.859Z,19.00
2017-08-09T03:51:55.274Z,18.13
2017-08-09T03:54:21.674Z,17.33
2017-08-09T03:56:48.045Z,20.23
2017-08-09T03:59:14.418Z,18.60
2017-08-09T04:01:40.781Z,20.60
2017-08-09T04:04:07.126Z,18.10
2017-08-09T04:06:33.513Z,20.43
2017-08-09T04:08:59.880Z,21.20
2017-08-09T04:11:26.252Z,18.93
2017-08-09T04:13:52.648Z,21.27
2017-08-09T04:16:19.052Z,20.63
2017-08-09T04:18:45.470Z,23.77
2017-08-09T04:21:11.864Z,21.40
2017-08-09T04:23:38.239Z,21.97
2017-08-09T04:26:04.670Z,20.13
2017-08-09T04:28:31.026Z,21.37
2017-08-09T04:30:57.401Z,22.37
2017-08-09T04:33:23.754Z,23.53
2017-08-09T04:35:50.129Z,21.87
2017-08-09T04:38:16.513Z,22.27
2017-08-09T04:40:42.896Z,22.70
2017-08-09T04:43:09.263Z,22.67
2017-08-09T04:45:35.607Z,21.73
2017-08-09T04:48:02.156Z,21.87
2017-08-09T04:50:28.507Z,20.30
2017-08-09T04:52:54.860Z,21.90
2017-08-09T04:55:21.249Z,20.40
2017-08-09T04:57:47.634Z,18.70
2017-08-09T05:00:14.018Z,19.93
2017-08-09T05:02:40.396Z,20.97
2017-08-09T05:05:06.804Z,21.70
2017-08-09T05:07:33.225Z,19.77
2017-08-09T05:09:59.616Z,18.70
2017-08-09T05:12:26.007Z,19.93
2017-08-09T05:14:52.373Z,19.20
2017-08-09T05:17:18.734Z,18.20
2017-08-09T05:19:45.097Z,16.43
2017-08-09T05:22:11.424Z,16.33
2017-08-09T05:24:37.812Z,15.80
2017-08-09T05:27:04.188Z,14.00
2017-08-09T05:29:31.502Z,15.63
2017-08-09T05:31:57.865Z,13.13
2017-08-09T05:34:24.621Z,13.60
2017-08-09T05:36:51.001Z,11.40
2017-08-09T05:39:17.394Z,11.97
2017-08-09T05:41:43.779Z,11.70
2017-08-09T05:44:10.157Z,10.70
2017-08-09T05:46:36.544Z,11.90
2017-08-09T05:49:02.914Z,11.30
2017-08-09T05:51:29.276Z,11.07
2017-08-09T05:53:55.650Z,9.40
2017-08-09T05:56:22.007Z,9.97
2017-08-09T05:58:48.377Z,9.90
2017-08-09T06:01:14.758Z,7.70
2017-08-09T06:03:41.165Z,8.50
2017-08-09T06:06:07.534Z,7.87
2017-08-09T06:08:33.923Z,7.90
2017-08-09T06:11:00.298Z,7.20
2017-08-09T06:13:26.644Z,8.10
2017-08-09T06:15:53.025Z,7.50
2017-08-09T06:18:19.441Z,6.90
2017-08-09T06:20:45.797Z,6.73
2017-08-09T06:23:12.176Z,6.60
2017-08-09T06:25:38.579Z,7.00
2017-08-09T06:28:04.983Z,6.30
2017-08-09T06:30:31.348Z,6.67
2017-08-09T06:32:57.747Z,4.90
2017-08-09T06:35:24.172Z,5.93
2017-08-09T06:37:50.537Z,5.23
2017-08-09T06:40:16.912Z,6.20
2017-08-09T06:42:43.283Z,6.93
2017-08-09T06:45:09.646Z,6.13
2017-08-09T06:47:36.026Z,5.43
2017-08-09T06:50:02.445Z,5.33
2017-08-09T06:52:28.815Z,4.90
2017-08-09T06:54:55.207Z,4.60
2017-08-09T06:57:21.593Z,4.50
2017-08-09T06:59:47.955Z,4.43
2017-08-09T07:02:14.323Z,3.60
2017-08-09T07:04:40.707Z,4.60
2017-08-09T07:07:07.111Z,4.07
2017-08-09T07:09:33.490Z,3.87
2017-08-09T07:11:59.864Z,3.40
2017-08-09T07:14:26.251Z,4.30
2017-08-09T07:16:52.617Z,3.73
2017-08-09T07:19:19.002Z,3.33
2017-08-09T07:21:45.396Z,3.20
2017-08-09T07:24:11.786Z,2.93
2017-08-09T07:26:38.170Z,2.83
2017-08-09T07:29:04.535Z,3.27
2017-08-09T07:31:30.931Z,2.70
2017-08-09T07:33:57.322Z,2.70
2017-08-09T07:36:23.722Z,3.07
2017-08-09T07:38:50.078Z,2.40
2017-08-09T07:41:16.423Z,2.73
2017-08-09T07:43:42.832Z,3.50
2017-08-09T07:46:09.198Z,3.20
2017-08-09T07:48:35.586Z,2.80
2017-08-09T07:51:02.447Z,2.80
2017-08-09T07:53:28.836Z,2.63
2017-08-09T07:55:55.763Z,3.20
2017-08-09T07:58:22.120Z,3.60
2017-08-09T08:00:48.515Z,3.27
2017-08-09T08:03:14.899Z,3.70
2017-08-09T08:05:41.269Z,3.80
2017-08-09T08:08:07.662Z,4.30
2017-08-09T08:10:34.051Z,4.40
2017-08-09T08:13:00.420Z,4.83
2017-08-09T08:15:26.800Z,4.10
2017-08-09T08:17:53.166Z,4.70
2017-08-09T08:20:19.545Z,4.40
2017-08-09T08:22:45.960Z,4.97
2017-08-09T08:25:12.298Z,5.00
2017-08-09T08:27:38.650Z,4.03
2017-08-09T08:30:05.036Z,4.00
2017-08-09T08:32:31.509Z,4.60
2017-08-09T08:34:57.872Z,4.33
2017-08-09T08:37:24.270Z,4.37
2017-08-09T08:39:50.669Z,4.10
2017-08-09T08:42:17.038Z,4.20
2017-08-09T08:44:43.425Z,4.83
2017-08-09T08:47:09.809Z,5.33
2017-08-09T08:49:36.220Z,4.93
2017-08-09T08:52:02.600Z,4.47
2017-08-09T08:54:29.012Z,5.20
2017-08-09T08:56:55.421Z,5.00
2017-08-09T08:59:21.794Z,5.40
2017-08-09T09:01:48.173Z,3.80
2017-08-09T09:04:14.573Z,3.70
2017-08-09T09:06:40.953Z,4.40
2017-08-09T09:09:07.315Z,4.20
2017-08-09T09:11:33.711Z,4.20
2017-08-09T09:14:00.108Z,4.03
2017-08-09T09:16:26.488Z,4.43
2017-08-09T09:18:52.866Z,4.53
2017-08-09T09:21:19.219Z,4.40
2017-08-09T09:23:45.667Z,4.23
2017-08-09T09:26:12.094Z,4.37
2017-08-09T09:28:38.468Z,4.40
2017-08-09T09:31:04.871Z,4.30
2017-08-09T09:33:31.249Z,4.80
2017-08-09T09:35:57.625Z,4.83
2017-08-09T09:38:24.033Z,4.30
2017-08-09T09:40:50.461Z,3.90
2017-08-09T09:43:16.841Z,3.73
2017-08-09T09:45:43.242Z,4.70
2017-08-09T09:48:09.646Z,4.40
2017-08-09T09:50:36.070Z,3.63
2017-08-09T09:53:02.455Z,4.20
2017-08-09T09:55:28.842Z,4.30
2017-08-09T09:57:55.234Z,3.90
2017-08-09T10:00:21.608Z,3.93
2017-08-09T10:02:47.971Z,3.83
2017-08-09T10:05:14.353Z,3.60
2017-08-09T10:07:41.110Z,3.40
2017-08-09T10:10:07.497Z,3.17
2017-08-09T10:12:33.858Z,3.17
2017-08-09T10:15:00.241Z,3.07
2017-08-09T10:17:26.618Z,3.30
2017-08-09T10:19:52.983Z,3.37
2017-08-09T10:22:19.363Z,2.90
2017-08-09T10:24:45.749Z,2.77
2017-08-09T10:27:12.121Z,2.50
2017-08-09T10:29:38.512Z,2.37
2017-08-09T10:32:04.893Z,2.30
2017-08-09T10:34:31.285Z,2.80
2017-08-09T10:36:58.528Z,2.27
2017-08-09T10:39:24.921Z,1.80
2017-08-09T10:41:51.308Z,2.00
2017-08-09T10:44:18.053Z,2.23
2017-08-09T10:46:44.461Z,2.00
2017-08-09T10:49:10.849Z,1.90
2017-08-09T10:51:37.285Z,1.93
2017-08-09T10:54:03.667Z,1.77
2017-08-09T10:56:30.043Z,1.80
2017-08-09T10:58:56.425Z,1.80
2017-08-09T11:01:22.832Z,1.90
2017-08-09T11:03:49.284Z,2.17
2017-08-09T11:06:15.692Z,2.07
2017-08-09T11:08:42.100Z,2.10
2017-08-09T11:11:09.019Z,1.80
2017-08-09T11:13:35.403Z,2.30
2017-08-09T11:16:01.784Z,2.07
2017-08-09T11:18:28.186Z,2.17
2017-08-09T11:20:54.622Z,2.37
2017-08-09T11:23:20.995Z,2.50
2017-08-09T11:25:47.411Z,2.20
2017-08-09T11:28:13.787Z,2.00
2017-08-09T11:30:40.163Z,2.33
2017-08-09T11:33:06.545Z,2.13
2017-08-09T11:35:32.952Z,2.70
2017-08-09T11:37:59.318Z,2.70
2017-08-09T11:40:25.708Z,2.73
2017-08-09T11:42:52.122Z,2.90
2017-08-09T11:45:18.494Z,2.27
2017-08-09T11:47:44.867Z,2.47
2017-08-09T11:50:11.268Z,2.80
2017-08-09T11:52:37.708Z,2.43
2017-08-09T11:55:04.077Z,2.10
2017-08-09T11:57:30.476Z,2.27
2017-08-09T11:59:56.875Z,2.17
2017-08-09T12:02:24.709Z,2.63
2017-08-09T12:04:51.104Z,2.97
2017-08-09T12:07:17.792Z,2.60
2017-08-09T12:09:45.817Z,2.50
2017-08-09T12:12:12.191Z,2.37
2017-08-09T12:14:38.703Z,2.30
2017-08-09T12:17:05.095Z,2.80
2017-08-09T12:19:31.508Z,2.60
2017-08-09T12:21:57.940Z,2.60
2017-08-09T12:24:24.310Z,3.03
2017-08-09T12:26:50.690Z,2.90
2017-08-09T12:29:17.047Z,3.60
2017-08-09T12:31:43.428Z,3.03
2017-08-09T12:34:09.972Z,3.27
2017-08-09T12:36:36.367Z,3.30
2017-08-09T12:39:02.899Z,3.50
2017-08-09T12:41:29.269Z,3.67
2017-08-09T12:43:55.646Z,3.20
2017-08-09T12:46:22.020Z,3.10
2017-08-09T12:48:48.445Z,3.47
2017-08-09T12:51:14.850Z,3.13
2017-08-09T12:53:41.241Z,3.67
2017-08-09T12:56:07.605Z,2.93
2017-08-09T12:58:33.987Z,3.20
2017-08-09T13:01:00.393Z,2.50
2017-08-09T13:03:26.794Z,2.67
2017-08-09T13:05:53.207Z,2.33
2017-08-09T13:08:19.606Z,2.50
2017-08-09T13:10:46.001Z,2.87
2017-08-09T13:13:12.376Z,3.13
2017-08-09T13:15:38.819Z,2.43
2017-08-09T13:18:05.219Z,2.53
2017-08-09T13:20:31.621Z,2.20
2017-08-09T13:22:58.017Z,2.57
2017-08-09T13:25:24.424Z,2.00
2017-08-09T13:27:50.844Z,2.20
2017-08-09T13:30:17.234Z,2.00
2017-08-09T13:32:43.653Z,2.73
2017-08-09T13:35:10.063Z,2.40
2017-08-09T13:37:36.436Z,1.87
2017-08-09T13:40:02.806Z,2.70
2017-08-09T13:42:29.220Z,2.10
2017-08-09T13:44:55.587Z,2.00
2017-08-09T13:47:22.024Z,2.43
2017-08-09T13:49:48.397Z,2.50
2017-08-09T13:52:14.766Z,2.10
2017-08-09T13:54:41.125Z,2.00
2017-08-09T13:57:07.580Z,1.40
2017-08-09T13:59:33.983Z,1.87
2017-08-09T14:02:00.352Z,2.00
2017-08-09T14:04:26.774Z,1.63
2017-08-09T14:06:53.149Z,2.20
2017-08-09T14:09:19.574Z,2.20
2017-08-09T14:11:45.993Z,2.10
2017-08-09T14:14:12.384Z,1.67
2017-08-09T14:16:38.750Z,1.50
2017-08-09T14:19:05.132Z,1.80
2017-08-09T14:21:31.506Z,1.60
2017-08-09T14:23:57.877Z,2.00
2017-08-09T14:26:24.736Z,1.70
2017-08-09T14:28:51.094Z,1.77
2017-08-09T14:31:17.455Z,1.83
2017-08-09T14:33:43.844Z,1.83
2017-08-09T14:36:10.225Z,2.07
2017-08-09T14:38:36.607Z,1.47
2017-08-09T14:41:02.971Z,1.80
2017-08-09T14:43:29.351Z,1.50
2017-08-09T14:45:55.787Z,1.77
2017-08-09T14:48:22.169Z,1.80
2017-08-09T14:50:48.555Z,2.00
2017-08-09T14:53:14.975Z,1.30
2017-08-09T14:55:41.388Z,1.60
2017-08-09T14:58:07.776Z,1.60
2017-08-09T15:00:34.146Z,1.50
2017-08-09T15:03:00.568Z,2.07
2017-08-09T15:05:26.994Z,1.50
2017-08-09T15:07:53.395Z,1.60
2017-08-09T15:10:19.789Z,1.60
2017-08-09T15:12:46.205Z,1.90
2017-08-09T15:15:12.586Z,1.50
2017-08-09T15:17:38.979Z,2.17
2017-08-09T15:20:05.341Z,2.20
2017-08-09T15:22:31.756Z,1.93
2017-08-09T15:24:58.114Z,1.73
2017-08-09T15:27:24.482Z,2.00
2017-08-09T15:29:50.870Z,2.00
2017-08-09T15:32:17.243Z,1.90
2017-08-09T15:34:43.633Z,1.53
2017-08-09T15:37:10.077Z,2.20
2017-08-09T15:39:36.479Z,1.77
2017-08-09T15:42:02.916Z,1.70
2017-08-09T15:44:29.304Z,2.07
2017-08-09T15:46:55.684Z,2.07
2017-08-09T15:49:22.073Z,1.90
2017-08-09T15:51:48.490Z,1.70
2017-08-09T15:54:14.876Z,2.27
2017-08-09T15:56:41.281Z,1.80
2017-08-09T15:59:07.674Z,1.97
2017-08-09T16:01:34.063Z,2.10
2017-08-09T16:04:00.478Z,1.50
2017-08-09T16:06:26.866Z,1.80
2017-08-09T16:08:53.263Z,1.80
2017-08-09T16:11:19.643Z,1.93
2017-08-09T16:13:46.037Z,1.97
2017-08-09T16:16:12.654Z,1.87
2017-08-09T16:18:39.041Z,1.90
2017-08-09T16:21:05.443Z,1.40
2017-08-09T16:23:31.808Z,1.67
2017-08-09T16:25:58.194Z,2.10
2017-08-09T16:28:24.592Z,2.30
2017-08-09T16:30:50.992Z,2.10
2017-08-09T16:33:17.452Z,1.70
2017-08-09T16:35:43.858Z,2.00
2017-08-09T16:38:10.258Z,2.13
2017-08-09T16:40:36.877Z,1.77
2017-08-09T16:43:03.792Z,1.80
2017-08-09T16:45:30.389Z,1.87
2017-08-09T16:47:57.027Z,1.93
2017-08-09T16:50:23.417Z,2.27
2017-08-09T16:52:49.781Z,2.20
2017-08-09T16:55:16.149Z,1.80
2017-08-09T16:57:42.840Z,2.20
2017-08-09T17:00:09.240Z,2.20
2017-08-09T17:02:35.586Z,2.07
2017-08-09T17:05:02.067Z,1.70
2017-08-09T17:07:28.464Z,1.77
2017-08-09T17:09:54.875Z,1.70
2017-08-09T17:12:21.247Z,1.80
2017-08-09T17:14:47.635Z,2.40
2017-08-09T17:17:14.496Z,1.70
2017-08-09T17:19:40.942Z,1.90
2017-08-09T17:22:07.298Z,2.20
2017-08-09T17:24:33.647Z,2.40
2017-08-09T17:27:00.312Z,2.03
2017-08-09T17:29:26.705Z,1.97
2017-08-09T17:31:53.079Z,2.60
2017-08-09T17:34:19.476Z,2.23
2017-08-09T17:36:45.891Z,2.00
2017-08-09T17:39:12.273Z,2.10
2017-08-09T17:41:38.715Z,2.17
2017-08-09T17:44:05.078Z,2.10
2017-08-09T17:46:31.445Z,2.80
2017-08-09T17:48:57.855Z,2.60
2017-08-09T17:51:24.210Z,2.50
2017-08-09T17:53:50.889Z,2.20
2017-08-09T17:56:17.239Z,2.10
2017-08-09T17:58:43.625Z,2.40
2017-08-09T18:01:10.208Z,2.17
2017-08-09T18:03:36.778Z,3.67
2017-08-09T18:06:03.197Z,2.60
2017-08-09T18:08:29.655Z,2.70
2017-08-09T18:10:56.080Z,2.83
2017-08-09T18:13:22.485Z,2.80
2017-08-09T18:15:48.871Z,2.80
2017-08-09T18:18:15.231Z,3.10
2017-08-09T18:20:41.654Z,2.90
2017-08-09T18:23:08.064Z,2.40
2017-08-09T18:25:34.422Z,3.10
2017-08-09T18:28:00.840Z,2.67
2017-08-09T18:30:27.435Z,2.50
2017-08-09T18:32:54.255Z,2.53
2017-08-09T18:35:20.676Z,2.47
2017-08-09T18:37:47.213Z,3.00
2017-08-09T18:40:13.645Z,2.90
2017-08-09T18:42:40.287Z,2.90
2017-08-09T18:45:06.950Z,2.80
2017-08-09T18:47:33.581Z,2.80
2017-08-09T18:50:00.223Z,2.70
2017-08-09T18:52:27.042Z,2.60
2017-08-09T18:54:53.450Z,3.07
2017-08-09T18:57:19.858Z,2.83
2017-08-09T18:59:46.278Z,3.70
2017-08-09T19:02:12.684Z,3.27
2017-08-09T19:04:39.084Z,3.13
2017-08-09T19:07:05.451Z,3.27
2017-08-09T19:09:31.855Z,2.97
2017-08-09T19:11:58.264Z,2.60
2017-08-09T19:14:24.685Z,2.87
2017-08-09T19:16:51.097Z,3.03
2017-08-09T19:19:18.627Z,3.40
2017-08-09T19:21:45.083Z,2.97
2017-08-09T19:24:11.493Z,3.20
2017-08-09T19:26:37.880Z,3.37
2017-08-09T19:29:04.317Z,3.10
2017-08-09T19:31:30.888Z,3.30
2017-08-09T19:33:57.269Z,3.00
2017-08-09T19:36:23.647Z,2.97
2017-08-09T19:38:50.014Z,3.20
2017-08-09T19:41:16.438Z,2.70
2017-08-09T19:43:42.835Z,3.40
2017-08-09T19:46:09.429Z,2.93
2017-08-09T19:48:35.850Z,3.83
2017-08-09T19:51:02.243Z,3.60
2017-08-09T19:53:28.646Z,3.20
2017-08-09T19:55:55.061Z,3.30
2017-08-09T19:58:21.519Z,3.53
2017-08-09T20:00:47.888Z,3.30
2017-08-09T20:03:14.581Z,3.60
2017-08-09T20:05:41.021Z,3.53
2017-08-09T20:08:07.437Z,3.40
2017-08-09T20:10:33.820Z,3.23
2017-08-09T20:13:00.162Z,3.60
2017-08-09T20:15:26.520Z,3.27
2017-08-09T20:17:53.381Z,3.10
2017-08-09T20:20:19.837Z,3.97
2017-08-09T20:22:46.222Z,3.70
2017-08-09T20:25:12.609Z,4.30
2017-08-09T20:27:39.025Z,8.57
2017-08-09T20:30:05.525Z,4.73
2017-08-09T20:32:31.916Z,4.77
2017-08-09T20:34:58.440Z,4.80
2017-08-09T20:37:24.798Z,4.00
2017-08-09T20:39:51.201Z,3.70
2017-08-09T20:42:17.747Z,3.33
2017-08-09T20:44:44.104Z,4.00
2017-08-09T20:47:10.488Z,4.00
2017-08-09T20:49:36.842Z,4.10
2017-08-09T20:52:03.225Z,3.90
2017-08-09T20:54:29.636Z,3.37
2017-08-09T20:56:56.258Z,4.07
2017-08-09T20:59:22.627Z,4.47
2017-08-09T21:01:50.018Z,4.60
2017-08-09T21:04:16.392Z,4.77
2017-08-09T21:06:42.743Z,4.53
2017-08-09T21:09:09.110Z,4.00
2017-08-09T21:11:35.502Z,4.50
2017-08-09T21:14:01.848Z,4.30
2017-08-09T21:16:28.221Z,4.63
2017-08-09T21:18:54.622Z,4.30
2017-08-09T21:21:20.977Z,3.60
2017-08-09T21:23:47.349Z,4.73
2017-08-09T21:26:13.713Z,6.20
2017-08-09T21:28:40.084Z,4.60
2017-08-09T21:31:06.463Z,4.03
2017-08-09T21:33:32.908Z,4.40
2017-08-09T21:35:59.263Z,4.37
2017-08-09T21:38:25.628Z,4.30
2017-08-09T21:40:52.320Z,4.07
2017-08-09T21:43:18.726Z,3.97
2017-08-09T21:45:45.125Z,4.30
2017-08-09T21:48:11.471Z,4.97
2017-08-09T21:50:37.823Z,5.63
2017-08-09T21:53:04.189Z,4.73
2017-08-09T21:55:30.576Z,4.13
2017-08-09T21:57:56.944Z,4.83
2017-08-09T22:00:23.297Z,4.80
2017-08-09T22:02:53.281Z,4.60
2017-08-09T22:05:22.361Z,4.73
2017-08-09T22:07:48.917Z,4.60
2017-08-09T22:10:15.276Z,5.07
2017-08-09T22:12:41.639Z,4.60
2017-08-09T22:15:08.005Z,4.93
2017-08-09T22:17:34.390Z,4.63
2017-08-09T22:20:00.756Z,5.00
2017-08-09T22:22:27.102Z,5.50
2017-08-09T22:24:53.439Z,5.67
2017-08-09T22:27:19.831Z,5.20
2017-08-09T22:29:46.208Z,5.30
2017-08-09T22:32:12.546Z,4.80
2017-08-09T22:34:38.923Z,4.93
2017-08-09T22:37:05.261Z,5.10
2017-08-09T22:39:31.601Z,4.80
2017-08-09T22:41:57.984Z,5.03
2017-08-09T22:44:24.345Z,5.40
2017-08-09T22:46:50.715Z,4.83
2017-08-09T22:49:17.090Z,4.60
2017-08-09T22:51:43.429Z,4.70
2017-08-09T22:54:09.802Z,5.07
2017-08-09T22:56:36.169Z,5.30
2017-08-09T22:59:02.529Z,5.57
2017-08-09T23:01:28.889Z,4.90
2017-08-09T23:03:55.246Z,5.80
2017-08-09T23:06:21.600Z,5.53
2017-08-09T23:08:47.980Z,5.90
2017-08-09T23:11:14.417Z,5.63
2017-08-09T23:13:40.764Z,5.17
2017-08-09T23:16:07.135Z,5.40
2017-08-09T23:18:33.524Z,5.20
2017-08-09T23:20:59.887Z,6.17
2017-08-09T23:23:26.298Z,5.33
2017-08-09T23:25:52.640Z,5.40
2017-08-09T23:28:18.993Z,4.97
2017-08-09T23:30:45.373Z,5.70
2017-08-09T23:33:11.722Z,5.20
2017-08-09T23:35:38.077Z,5.23
2017-08-09T23:38:04.441Z,5.93
2017-08-09T23:40:30.771Z,5.70
2017-08-09T23:42:57.140Z,5.30
2017-08-09T23:45:23.523Z,5.50
2017-08-09T23:47:49.915Z,6.07
2017-08-09T23:50:16.270Z,5.50
2017-08-09T23:52:42.634Z,5.17
2017-08-09T23:55:08.997Z,6.00
2017-08-09T23:57:35.374Z,6.37
